sensor_id;sensor_type;location;lat;lon;timestamp;P1;durP1;ratioP1;P2;durP2;ratioP2
59366;SDS011;45163;47.690;11.770;2023-03-01T00:02:06;23.57;;;15.27;;
59366;SDS011;45163;47.690;11.770;2023-03-01T00:04:32;24.40;;;15.70;;
59366;SDS011;45163;47.690;11.770;2023-03-01T00:06:59;26.87;;;16.00;;
59366;SDS011;45163;47.690;11.770;2023-03-01T00:09:25;23.27;;;15.47;;
59366;SDS011;45163;47.690;11.770;2023-03-01T00:11:51;24.63;;;15.93;;
59366;SDS011;45163;47.690;11.770;2023-03-01T00:14:17;26.67;;;16.03;;
59366;SDS011;45163;47.690;11.770;2023-03-01T00:16:43;24.80;;;15.93;;
59366;SDS011;45163;47.690;11.770;2023-03-01T00:19:13;23.73;;;16.23;;
59366;SDS011;45163;47.690;11.770;2023-03-01T00:21:40;23.80;;;16.63;;
59366;SDS011;45163;47.690;11.770;2023-03-01T00:24:07;28.73;;;17.23;;
59366;SDS011;45163;47.690;11.770;2023-03-01T00:26:33;24.60;;;16.53;;
59366;SDS011;45163;47.690;11.770;2023-03-01T00:28:59;27.93;;;16.47;;
59366;SDS011;45163;47.690;11.770;2023-03-01T00:31:27;25.27;;;16.17;;
59366;SDS011;45163;47.690;11.770;2023-03-01T00:34:01;25.33;;;16.20;;
59366;SDS011;45163;47.690;11.770;2023-03-01T00:36:30;24.67;;;15.87;;
59366;SDS011;45163;47.690;11.770;2023-03-01T00:38:58;25.93;;;17.07;;
59366;SDS011;45163;47.690;11.770;2023-03-01T00:41:24;24.20;;;15.43;;
59366;SDS011;45163;47.690;11.770;2023-03-01T00:43:52;24.90;;;15.27;;
59366;SDS011;45163;47.690;11.770;2023-03-01T00:46:19;26.03;;;16.17;;
59366;SDS011;45163;47.690;11.770;2023-03-01T00:48:46;23.70;;;14.60;;
59366;SDS011;45163;47.690;11.770;2023-03-01T00:51:19;22.43;;;15.70;;
59366;SDS011;45163;47.690;11.770;2023-03-01T00:53:49;25.13;;;14.70;;
59366;SDS011;45163;47.690;11.770;2023-03-01T00:56:17;22.47;;;14.10;;
59366;SDS011;45163;47.690;11.770;2023-03-01T00:58:44;20.27;;;14.10;;
59366;SDS011;45163;47.690;11.770;2023-03-01T01:01:11;20.57;;;14.50;;
59366;SDS011;45163;47.690;11.770;2023-03-01T01:03:48;23.93;;;15.00;;
59366;SDS011;45163;47.690;11.770;2023-03-01T01:06:17;19.33;;;13.37;;
59366;SDS011;45163;47.690;11.770;2023-03-01T01:08:48;20.83;;;13.07;;
59366;SDS011;45163;47.690;11.770;2023-03-01T01:11:15;22.97;;;14.63;;
59366;SDS011;45163;47.690;11.770;2023-03-01T01:13:43;21.40;;;14.27;;
59366;SDS011;45163;47.690;11.770;2023-03-01T01:16:10;21.37;;;14.17;;
59366;SDS011;45163;47.690;11.770;2023-03-01T01:18:36;21.80;;;14.70;;
59366;SDS011;45163;47.690;11.770;2023-03-01T01:21:03;19.97;;;13.73;;
59366;SDS011;45163;47.690;11.770;2023-03-01T01:23:31;19.57;;;13.20;;
59366;SDS011;45163;47.690;11.770;2023-03-01T01:25:57;20.30;;;13.70;;
59366;SDS011;45163;47.690;11.770;2023-03-01T01:28:28;23.43;;;15.00;;
59366;SDS011;45163;47.690;11.770;2023-03-01T01:30:54;21.93;;;14.53;;
59366;SDS011;45163;47.690;11.770;2023-03-01T01:33:20;23.80;;;14.60;;
59366;SDS011;45163;47.690;11.770;2023-03-01T01:35:46;23.07;;;13.90;;
59366;SDS011;45163;47.690;11.770;2023-03-01T01:38:12;20.43;;;13.77;;
59366;SDS011;45163;47.690;11.770;2023-03-01T01:40:48;23.47;;;14.23;;
59366;SDS011;45163;47.690;11.770;2023-03-01T01:45:55;18.20;;;12.93;;
59366;SDS011;45163;47.690;11.770;2023-03-01T01:48:27;18.17;;;12.63;;
59366;SDS011;45163;47.690;11.770;2023-03-01T01:51:06;19.03;;;12.10;;
59366;SDS011;45163;47.690;11.770;2023-03-01T01:53:36;18.63;;;12.77;;
59366;SDS011;45163;47.690;11.770;2023-03-01T01:56:03;19.63;;;13.77;;
59366;SDS011;45163;47.690;11.770;2023-03-01T01:58:34;22.23;;;13.73;;
59366;SDS011;45163;47.690;11.770;2023-03-01T02:01:01;19.50;;;12.60;;
59366;SDS011;45163;47.690;11.770;2023-03-01T02:03:30;21.80;;;14.60;;
59366;SDS011;45163;47.690;11.770;2023-03-01T02:09:21;17.03;;;11.50;;
59366;SDS011;45163;47.690;11.770;2023-03-01T02:11:48;19.30;;;13.03;;
59366;SDS011;45163;47.690;11.770;2023-03-01T02:14:16;18.57;;;11.40;;
59366;SDS011;45163;47.690;11.770;2023-03-01T02:16:42;16.67;;;12.00;;
59366;SDS011;45163;47.690;11.770;2023-03-01T02:19:09;19.33;;;12.37;;
59366;SDS011;45163;47.690;11.770;2023-03-01T02:24:25;17.10;;;12.30;;
59366;SDS011;45163;47.690;11.770;2023-03-01T02:26:57;19.67;;;13.10;;
59366;SDS011;45163;47.690;11.770;2023-03-01T02:29:24;19.17;;;12.97;;
59366;SDS011;45163;47.690;11.770;2023-03-01T02:31:52;19.57;;;13.37;;
59366;SDS011;45163;47.690;11.770;2023-03-01T02:34:23;19.37;;;13.50;;
59366;SDS011;45163;47.690;11.770;2023-03-01T02:36:56;23.70;;;15.47;;
59366;SDS011;45163;47.690;11.770;2023-03-01T02:39:30;21.60;;;13.67;;
59366;SDS011;45163;47.690;11.770;2023-03-01T02:42:14;21.10;;;13.37;;
59366;SDS011;45163;47.690;11.770;2023-03-01T02:44:45;18.80;;;12.97;;
59366;SDS011;45163;47.690;11.770;2023-03-01T02:47:11;20.40;;;13.37;;
59366;SDS011;45163;47.690;11.770;2023-03-01T02:49:37;17.70;;;11.87;;
59366;SDS011;45163;47.690;11.770;2023-03-01T02:55:10;19.77;;;12.43;;
59366;SDS011;45163;47.690;11.770;2023-03-01T02:57:40;18.10;;;12.10;;
59366;SDS011;45163;47.690;11.770;2023-03-01T03:00:13;18.33;;;12.07;;
59366;SDS011;45163;47.690;11.770;2023-03-01T03:02:45;18.00;;;12.67;;
59366;SDS011;45163;47.690;11.770;2023-03-01T03:05:20;17.57;;;12.23;;
59366;SDS011;45163;47.690;11.770;2023-03-01T03:07:48;21.87;;;13.73;;
59366;SDS011;45163;47.690;11.770;2023-03-01T03:10:17;20.00;;;13.00;;
59366;SDS011;45163;47.690;11.770;2023-03-01T03:12:58;19.43;;;12.83;;
59366;SDS011;45163;47.690;11.770;2023-03-01T03:15:26;18.50;;;12.40;;
59366;SDS011;45163;47.690;11.770;2023-03-01T03:17:55;18.97;;;12.40;;
59366;SDS011;45163;47.690;11.770;2023-03-01T03:20:23;19.77;;;12.83;;
59366;SDS011;45163;47.690;11.770;2023-03-01T03:22:52;16.90;;;12.00;;
59366;SDS011;45163;47.690;11.770;2023-03-01T03:25:20;17.07;;;12.00;;
59366;SDS011;45163;47.690;11.770;2023-03-01T03:27:47;17.50;;;11.83;;
59366;SDS011;45163;47.690;11.770;2023-03-01T03:30:16;18.13;;;12.30;;
59366;SDS011;45163;47.690;11.770;2023-03-01T03:32:45;17.87;;;11.97;;
59366;SDS011;45163;47.690;11.770;2023-03-01T03:35:23;18.00;;;12.43;;
59366;SDS011;45163;47.690;11.770;2023-03-01T03:37:50;19.13;;;12.00;;
59366;SDS011;45163;47.690;11.770;2023-03-01T03:40:38;18.10;;;12.63;;
59366;SDS011;45163;47.690;11.770;2023-03-01T03:43:07;18.93;;;12.43;;
59366;SDS011;45163;47.690;11.770;2023-03-01T03:45:35;20.30;;;12.80;;
59366;SDS011;45163;47.690;11.770;2023-03-01T03:48:02;16.87;;;12.23;;
59366;SDS011;45163;47.690;11.770;2023-03-01T03:50:30;17.73;;;12.73;;
59366;SDS011;45163;47.690;11.770;2023-03-01T03:52:56;17.73;;;12.13;;
59366;SDS011;45163;47.690;11.770;2023-03-01T03:55:22;19.23;;;12.67;;
59366;SDS011;45163;47.690;11.770;2023-03-01T03:57:53;18.77;;;13.00;;
59366;SDS011;45163;47.690;11.770;2023-03-01T04:00:20;20.53;;;13.03;;
59366;SDS011;45163;47.690;11.770;2023-03-01T04:02:49;19.57;;;12.43;;
59366;SDS011;45163;47.690;11.770;2023-03-01T04:05:17;19.10;;;12.20;;
59366;SDS011;45163;47.690;11.770;2023-03-01T04:07:44;17.53;;;12.37;;
59366;SDS011;45163;47.690;11.770;2023-03-01T04:10:13;19.50;;;13.37;;
59366;SDS011;45163;47.690;11.770;2023-03-01T04:12:40;19.90;;;13.20;;
59366;SDS011;45163;47.690;11.770;2023-03-01T04:15:09;19.93;;;13.07;;
59366;SDS011;45163;47.690;11.770;2023-03-01T04:17:43;21.97;;;13.67;;
59366;SDS011;45163;47.690;11.770;2023-03-01T04:20:11;18.60;;;12.33;;
59366;SDS011;45163;47.690;11.770;2023-03-01T04:22:39;19.23;;;13.27;;
59366;SDS011;45163;47.690;11.770;2023-03-01T04:25:05;20.00;;;13.77;;
59366;SDS011;45163;47.690;11.770;2023-03-01T04:27:33;20.37;;;13.50;;
59366;SDS011;45163;47.690;11.770;2023-03-01T04:30:00;20.53;;;13.57;;
59366;SDS011;45163;47.690;11.770;2023-03-01T04:32:26;19.30;;;13.47;;
59366;SDS011;45163;47.690;11.770;2023-03-01T04:34:52;18.17;;;12.80;;
59366;SDS011;45163;47.690;11.770;2023-03-01T04:37:18;20.77;;;13.80;;
59366;SDS011;45163;47.690;11.770;2023-03-01T04:39:44;20.17;;;13.83;;
59366;SDS011;45163;47.690;11.770;2023-03-01T04:42:13;19.37;;;13.20;;
59366;SDS011;45163;47.690;11.770;2023-03-01T04:44:41;21.37;;;13.50;;
59366;SDS011;45163;47.690;11.770;2023-03-01T04:47:07;19.20;;;13.10;;
59366;SDS011;45163;47.690;11.770;2023-03-01T04:49:33;21.60;;;13.53;;
59366;SDS011;45163;47.690;11.770;2023-03-01T04:51:59;20.23;;;13.43;;
59366;SDS011;45163;47.690;11.770;2023-03-01T04:54:31;23.43;;;14.47;;
59366;SDS011;45163;47.690;11.770;2023-03-01T04:56:58;19.00;;;13.13;;
59366;SDS011;45163;47.690;11.770;2023-03-01T04:59:24;18.20;;;12.60;;
59366;SDS011;45163;47.690;11.770;2023-03-01T05:01:50;21.03;;;13.80;;
59366;SDS011;45163;47.690;11.770;2023-03-01T05:04:17;19.17;;;13.00;;
59366;SDS011;45163;47.690;11.770;2023-03-01T05:06:43;18.00;;;12.63;;
59366;SDS011;45163;47.690;11.770;2023-03-01T05:09:10;19.20;;;13.17;;
59366;SDS011;45163;47.690;11.770;2023-03-01T05:11:37;18.93;;;13.57;;
59366;SDS011;45163;47.690;11.770;2023-03-01T05:14:03;21.40;;;13.97;;
59366;SDS011;45163;47.690;11.770;2023-03-01T05:16:33;22.53;;;14.67;;
59366;SDS011;45163;47.690;11.770;2023-03-01T05:18:59;20.93;;;13.70;;
59366;SDS011;45163;47.690;11.770;2023-03-01T05:21:25;23.67;;;14.13;;
59366;SDS011;45163;47.690;11.770;2023-03-01T05:23:51;21.03;;;14.23;;
59366;SDS011;45163;47.690;11.770;2023-03-01T05:26:18;22.00;;;14.87;;
59366;SDS011;45163;47.690;11.770;2023-03-01T05:28:47;24.37;;;15.83;;
59366;SDS011;45163;47.690;11.770;2023-03-01T05:31:13;22.10;;;15.80;;
59366;SDS011;45163;47.690;11.770;2023-03-01T05:33:40;20.57;;;14.50;;
59366;SDS011;45163;47.690;11.770;2023-03-01T05:36:07;21.17;;;14.17;;
59366;SDS011;45163;47.690;11.770;2023-03-01T05:38:35;22.40;;;15.00;;
59366;SDS011;45163;47.690;11.770;2023-03-01T05:41:01;21.33;;;14.50;;
59366;SDS011;45163;47.690;11.770;2023-03-01T05:43:29;20.80;;;14.60;;
59366;SDS011;45163;47.690;11.770;2023-03-01T05:45:59;19.93;;;14.07;;
59366;SDS011;45163;47.690;11.770;2023-03-01T05:48:25;22.20;;;14.70;;
59366;SDS011;45163;47.690;11.770;2023-03-01T05:50:51;21.00;;;14.67;;
59366;SDS011;45163;47.690;11.770;2023-03-01T05:53:18;22.63;;;14.87;;
59366;SDS011;45163;47.690;11.770;2023-03-01T05:55:46;39.50;;;21.93;;
59366;SDS011;45163;47.690;11.770;2023-03-01T05:58:14;34.80;;;22.90;;
59366;SDS011;45163;47.690;11.770;2023-03-01T06:00:43;22.77;;;16.17;;
59366;SDS011;45163;47.690;11.770;2023-03-01T06:03:11;25.50;;;15.50;;
59366;SDS011;45163;47.690;11.770;2023-03-01T06:05:39;24.00;;;15.87;;
59366;SDS011;45163;47.690;11.770;2023-03-01T06:08:06;23.53;;;15.37;;
59366;SDS011;45163;47.690;11.770;2023-03-01T06:10:32;23.73;;;15.20;;
59366;SDS011;45163;47.690;11.770;2023-03-01T06:12:58;24.60;;;15.63;;
59366;SDS011;45163;47.690;11.770;2023-03-01T06:15:24;21.90;;;15.00;;
59366;SDS011;45163;47.690;11.770;2023-03-01T06:17:51;23.60;;;15.33;;
59366;SDS011;45163;47.690;11.770;2023-03-01T06:20:21;21.53;;;15.20;;
59366;SDS011;45163;47.690;11.770;2023-03-01T06:22:48;25.03;;;16.33;;
59366;SDS011;45163;47.690;11.770;2023-03-01T06:25:16;22.00;;;15.13;;
59366;SDS011;45163;47.690;11.770;2023-03-01T06:27:44;21.73;;;15.33;;
59366;SDS011;45163;47.690;11.770;2023-03-01T06:30:11;24.33;;;16.20;;
59366;SDS011;45163;47.690;11.770;2023-03-01T06:32:39;31.10;;;17.40;;
59366;SDS011;45163;47.690;11.770;2023-03-01T06:35:09;26.33;;;17.47;;
59366;SDS011;45163;47.690;11.770;2023-03-01T06:37:36;28.17;;;18.30;;
59366;SDS011;45163;47.690;11.770;2023-03-01T06:40:03;32.03;;;18.33;;
59366;SDS011;45163;47.690;11.770;2023-03-01T06:42:36;27.57;;;16.50;;
59366;SDS011;45163;47.690;11.770;2023-03-01T06:45:04;25.80;;;16.83;;
59366;SDS011;45163;47.690;11.770;2023-03-01T06:47:31;33.10;;;20.87;;
59366;SDS011;45163;47.690;11.770;2023-03-01T06:50:01;43.23;;;23.67;;
59366;SDS011;45163;47.690;11.770;2023-03-01T06:52:27;38.60;;;23.00;;
59366;SDS011;45163;47.690;11.770;2023-03-01T06:54:53;35.63;;;20.40;;
59366;SDS011;45163;47.690;11.770;2023-03-01T06:57:19;34.67;;;20.30;;
59366;SDS011;45163;47.690;11.770;2023-03-01T06:59:46;30.83;;;19.07;;
59366;SDS011;45163;47.690;11.770;2023-03-01T07:02:13;22.30;;;16.07;;
59366;SDS011;45163;47.690;11.770;2023-03-01T07:04:40;25.17;;;16.03;;
59366;SDS011;45163;47.690;11.770;2023-03-01T07:07:07;23.47;;;16.00;;
59366;SDS011;45163;47.690;11.770;2023-03-01T07:09:33;24.77;;;16.63;;
59366;SDS011;45163;47.690;11.770;2023-03-01T07:11:59;22.53;;;16.00;;
59366;SDS011;45163;47.690;11.770;2023-03-01T07:14:25;23.10;;;15.23;;
59366;SDS011;45163;47.690;11.770;2023-03-01T07:16:55;24.60;;;15.90;;
59366;SDS011;45163;47.690;11.770;2023-03-01T07:19:21;25.73;;;17.07;;
59366;SDS011;45163;47.690;11.770;2023-03-01T07:21:47;25.60;;;17.97;;
59366;SDS011;45163;47.690;11.770;2023-03-01T07:24:13;23.87;;;17.90;;
59366;SDS011;45163;47.690;11.770;2023-03-01T07:26:40;22.70;;;16.07;;
59366;SDS011;45163;47.690;11.770;2023-03-01T07:29:06;25.30;;;18.47;;
59366;SDS011;45163;47.690;11.770;2023-03-01T07:31:33;25.67;;;18.60;;
59366;SDS011;45163;47.690;11.770;2023-03-01T07:33:59;23.90;;;17.40;;
59366;SDS011;45163;47.690;11.770;2023-03-01T07:36:25;25.60;;;18.37;;
59366;SDS011;45163;47.690;11.770;2023-03-01T07:38:51;27.53;;;17.90;;
59366;SDS011;45163;47.690;11.770;2023-03-01T07:41:17;23.93;;;17.27;;
59366;SDS011;45163;47.690;11.770;2023-03-01T07:43:43;27.30;;;17.50;;
59366;SDS011;45163;47.690;11.770;2023-03-01T07:46:09;22.77;;;17.30;;
59366;SDS011;45163;47.690;11.770;2023-03-01T07:48:36;24.43;;;17.80;;
59366;SDS011;45163;47.690;11.770;2023-03-01T07:51:04;27.00;;;18.40;;
59366;SDS011;45163;47.690;11.770;2023-03-01T07:53:31;25.77;;;18.03;;
59366;SDS011;45163;47.690;11.770;2023-03-01T07:56:01;26.23;;;17.23;;
59366;SDS011;45163;47.690;11.770;2023-03-01T07:58:37;25.10;;;17.40;;
59366;SDS011;45163;47.690;11.770;2023-03-01T08:01:05;24.87;;;17.20;;
59366;SDS011;45163;47.690;11.770;2023-03-01T08:03:34;23.03;;;17.07;;
59366;SDS011;45163;47.690;11.770;2023-03-01T08:06:01;25.37;;;17.33;;
59366;SDS011;45163;47.690;11.770;2023-03-01T08:08:28;24.93;;;17.83;;
59366;SDS011;45163;47.690;11.770;2023-03-01T08:11:00;25.70;;;17.40;;
59366;SDS011;45163;47.690;11.770;2023-03-01T08:13:28;22.97;;;17.00;;
59366;SDS011;45163;47.690;11.770;2023-03-01T08:15:54;24.70;;;17.03;;
59366;SDS011;45163;47.690;11.770;2023-03-01T08:18:25;22.20;;;16.70;;
59366;SDS011;45163;47.690;11.770;2023-03-01T08:20:51;23.07;;;17.03;;
59366;SDS011;45163;47.690;11.770;2023-03-01T08:23:17;24.03;;;17.70;;
59366;SDS011;45163;47.690;11.770;2023-03-01T08:25:43;22.23;;;16.37;;
59366;SDS011;45163;47.690;11.770;2023-03-01T08:28:09;23.90;;;17.13;;
59366;SDS011;45163;47.690;11.770;2023-03-01T08:30:35;28.03;;;17.50;;
59366;SDS011;45163;47.690;11.770;2023-03-01T08:33:01;24.87;;;16.67;;
59366;SDS011;45163;47.690;11.770;2023-03-01T08:35:27;27.17;;;17.33;;
59366;SDS011;45163;47.690;11.770;2023-03-01T08:37:53;23.03;;;16.97;;
59366;SDS011;45163;47.690;11.770;2023-03-01T08:40:19;23.67;;;16.93;;
59366;SDS011;45163;47.690;11.770;2023-03-01T08:42:45;22.13;;;16.73;;
59366;SDS011;45163;47.690;11.770;2023-03-01T08:45:11;23.20;;;17.10;;
59366;SDS011;45163;47.690;11.770;2023-03-01T08:47:39;25.33;;;17.03;;
59366;SDS011;45163;47.690;11.770;2023-03-01T08:50:05;23.47;;;16.33;;
59366;SDS011;45163;47.690;11.770;2023-03-01T08:52:32;24.83;;;16.50;;
59366;SDS011;45163;47.690;11.770;2023-03-01T08:54:58;24.40;;;16.53;;
59366;SDS011;45163;47.690;11.770;2023-03-01T08:57:26;26.23;;;16.97;;
59366;SDS011;45163;47.690;11.770;2023-03-01T08:59:53;22.87;;;16.03;;
59366;SDS011;45163;47.690;11.770;2023-03-01T09:02:21;19.87;;;15.10;;
59366;SDS011;45163;47.690;11.770;2023-03-01T09:04:48;22.87;;;16.53;;
59366;SDS011;45163;47.690;11.770;2023-03-01T09:07:14;23.50;;;16.77;;
59366;SDS011;45163;47.690;11.770;2023-03-01T09:09:40;21.47;;;16.17;;
59366;SDS011;45163;47.690;11.770;2023-03-01T09:12:06;23.30;;;15.30;;
59366;SDS011;45163;47.690;11.770;2023-03-01T09:14:32;21.53;;;15.30;;
59366;SDS011;45163;47.690;11.770;2023-03-01T09:16:59;23.23;;;16.47;;
59366;SDS011;45163;47.690;11.770;2023-03-01T09:19:28;20.90;;;16.00;;
59366;SDS011;45163;47.690;11.770;2023-03-01T09:21:54;21.50;;;15.47;;
59366;SDS011;45163;47.690;11.770;2023-03-01T09:24:22;20.37;;;15.30;;
59366;SDS011;45163;47.690;11.770;2023-03-01T09:26:49;20.97;;;15.90;;
59366;SDS011;45163;47.690;11.770;2023-03-01T09:29:18;19.60;;;15.33;;
59366;SDS011;45163;47.690;11.770;2023-03-01T09:31:44;19.07;;;15.40;;
59366;SDS011;45163;47.690;11.770;2023-03-01T09:34:10;20.73;;;14.10;;
59366;SDS011;45163;47.690;11.770;2023-03-01T09:36:36;21.83;;;15.47;;
59366;SDS011;45163;47.690;11.770;2023-03-01T09:39:02;18.67;;;14.23;;
59366;SDS011;45163;47.690;11.770;2023-03-01T09:44:29;20.13;;;14.40;;
59366;SDS011;45163;47.690;11.770;2023-03-01T09:46:57;17.73;;;13.73;;
59366;SDS011;45163;47.690;11.770;2023-03-01T09:49:25;17.40;;;14.20;;
59366;SDS011;45163;47.690;11.770;2023-03-01T09:52:13;20.73;;;14.97;;
59366;SDS011;45163;47.690;11.770;2023-03-01T09:54:46;20.30;;;14.23;;
59366;SDS011;45163;47.690;11.770;2023-03-01T09:57:17;22.33;;;14.23;;
59366;SDS011;45163;47.690;11.770;2023-03-01T10:00:09;17.13;;;14.23;;
59366;SDS011;45163;47.690;11.770;2023-03-01T10:05:27;16.50;;;12.80;;
59366;SDS011;45163;47.690;11.770;2023-03-01T10:10:42;12.87;;;11.20;;
59366;SDS011;45163;47.690;11.770;2023-03-01T10:15:44;13.33;;;11.90;;
59366;SDS011;45163;47.690;11.770;2023-03-01T10:18:16;13.50;;;11.47;;
59366;SDS011;45163;47.690;11.770;2023-03-01T10:20:50;14.37;;;11.83;;
59366;SDS011;45163;47.690;11.770;2023-03-01T10:23:19;13.33;;;10.87;;
59366;SDS011;45163;47.690;11.770;2023-03-01T10:34:18;12.63;;;11.33;;
59366;SDS011;45163;47.690;11.770;2023-03-01T10:36:52;12.60;;;11.30;;
59366;SDS011;45163;47.690;11.770;2023-03-01T10:39:24;13.43;;;11.77;;
59366;SDS011;45163;47.690;11.770;2023-03-01T10:41:52;12.40;;;11.10;;
59366;SDS011;45163;47.690;11.770;2023-03-01T10:44:37;13.53;;;12.13;;
59366;SDS011;45163;47.690;11.770;2023-03-01T10:47:21;14.50;;;12.37;;
59366;SDS011;45163;47.690;11.770;2023-03-01T10:49:56;14.43;;;12.23;;
59366;SDS011;45163;47.690;11.770;2023-03-01T10:52:34;16.73;;;13.73;;
59366;SDS011;45163;47.690;11.770;2023-03-01T10:58:15;17.47;;;13.47;;
59366;SDS011;45163;47.690;11.770;2023-03-01T11:00:49;18.40;;;14.40;;
59366;SDS011;45163;47.690;11.770;2023-03-01T11:03:22;17.30;;;13.77;;
59366;SDS011;45163;47.690;11.770;2023-03-01T11:08:31;20.03;;;14.63;;
59366;SDS011;45163;47.690;11.770;2023-03-01T11:16:44;20.80;;;14.60;;
59366;SDS011;45163;47.690;11.770;2023-03-01T11:19:14;19.60;;;15.53;;
59366;SDS011;45163;47.690;11.770;2023-03-01T11:24:46;22.07;;;15.87;;
59366;SDS011;45163;47.690;11.770;2023-03-01T11:27:34;19.93;;;15.27;;
59366;SDS011;45163;47.690;11.770;2023-03-01T11:30:07;27.37;;;16.90;;
59366;SDS011;45163;47.690;11.770;2023-03-01T11:32:53;21.90;;;15.10;;
59366;SDS011;45163;47.690;11.770;2023-03-01T11:35:28;20.57;;;15.47;;
59366;SDS011;45163;47.690;11.770;2023-03-01T11:43:24;21.43;;;16.10;;
59366;SDS011;45163;47.690;11.770;2023-03-01T11:57:41;24.10;;;16.40;;
59366;SDS011;45163;47.690;11.770;2023-03-01T12:08:10;23.73;;;16.57;;
59366;SDS011;45163;47.690;11.770;2023-03-01T12:13:23;22.33;;;16.23;;
59366;SDS011;45163;47.690;11.770;2023-03-01T12:16:13;25.27;;;15.70;;
59366;SDS011;45163;47.690;11.770;2023-03-01T12:18:52;21.20;;;16.37;;
59366;SDS011;45163;47.690;11.770;2023-03-01T12:33:19;24.73;;;17.57;;
59366;SDS011;45163;47.690;11.770;2023-03-01T12:43:48;26.33;;;17.73;;
59366;SDS011;45163;47.690;11.770;2023-03-01T12:46:20;22.97;;;17.10;;
59366;SDS011;45163;47.690;11.770;2023-03-01T12:49:02;23.37;;;16.93;;
59366;SDS011;45163;47.690;11.770;2023-03-01T12:51:38;24.47;;;17.77;;
59366;SDS011;45163;47.690;11.770;2023-03-01T12:54:33;25.17;;;18.23;;
59366;SDS011;45163;47.690;11.770;2023-03-01T12:57:13;27.87;;;18.77;;
59366;SDS011;45163;47.690;11.770;2023-03-01T13:05:55;28.73;;;19.43;;
59366;SDS011;45163;47.690;11.770;2023-03-01T13:08:24;26.73;;;17.80;;
59366;SDS011;45163;47.690;11.770;2023-03-01T13:10:59;25.63;;;18.23;;
59366;SDS011;45163;47.690;11.770;2023-03-01T13:13:29;25.63;;;17.40;;
59366;SDS011;45163;47.690;11.770;2023-03-01T13:15:55;30.93;;;17.60;;
59366;SDS011;45163;47.690;11.770;2023-03-01T13:20:50;27.23;;;18.43;;
59366;SDS011;45163;47.690;11.770;2023-03-01T13:31:01;27.97;;;18.07;;
59366;SDS011;45163;47.690;11.770;2023-03-01T13:35:55;27.83;;;17.13;;
59366;SDS011;45163;47.690;11.770;2023-03-01T13:38:41;24.57;;;17.70;;
59366;SDS011;45163;47.690;11.770;2023-03-01T13:41:09;26.33;;;17.57;;
59366;SDS011;45163;47.690;11.770;2023-03-01T13:43:40;27.20;;;16.90;;
59366;SDS011;45163;47.690;11.770;2023-03-01T13:46:18;26.57;;;17.40;;
59366;SDS011;45163;47.690;11.770;2023-03-01T13:48:49;26.27;;;17.67;;
59366;SDS011;45163;47.690;11.770;2023-03-01T13:51:21;24.77;;;17.23;;
59366;SDS011;45163;47.690;11.770;2023-03-01T13:53:50;24.23;;;16.73;;
59366;SDS011;45163;47.690;11.770;2023-03-01T13:56:23;22.67;;;16.47;;
59366;SDS011;45163;47.690;11.770;2023-03-01T13:58:53;26.03;;;17.43;;
59366;SDS011;45163;47.690;11.770;2023-03-01T14:01:25;26.47;;;18.23;;
59366;SDS011;45163;47.690;11.770;2023-03-01T14:03:52;25.17;;;18.43;;
59366;SDS011;45163;47.690;11.770;2023-03-01T14:06:22;25.73;;;17.53;;
59366;SDS011;45163;47.690;11.770;2023-03-01T14:08:51;25.83;;;16.87;;
59366;SDS011;45163;47.690;11.770;2023-03-01T14:17:08;23.20;;;17.57;;
59366;SDS011;45163;47.690;11.770;2023-03-01T14:19:47;26.33;;;17.33;;
59366;SDS011;45163;47.690;11.770;2023-03-01T14:22:20;26.53;;;18.03;;
59366;SDS011;45163;47.690;11.770;2023-03-01T14:24:50;25.07;;;17.83;;
59366;SDS011;45163;47.690;11.770;2023-03-01T14:27:21;26.37;;;18.13;;
59366;SDS011;45163;47.690;11.770;2023-03-01T14:29:58;28.80;;;18.60;;
59366;SDS011;45163;47.690;11.770;2023-03-01T14:32:27;27.57;;;19.03;;
59366;SDS011;45163;47.690;11.770;2023-03-01T14:34:55;25.10;;;19.03;;
59366;SDS011;45163;47.690;11.770;2023-03-01T14:37:24;28.73;;;18.60;;
59366;SDS011;45163;47.690;11.770;2023-03-01T14:39:53;26.93;;;19.43;;
59366;SDS011;45163;47.690;11.770;2023-03-01T14:42:20;30.07;;;19.07;;
59366;SDS011;45163;47.690;11.770;2023-03-01T14:44:52;25.33;;;18.50;;
59366;SDS011;45163;47.690;11.770;2023-03-01T14:47:28;26.43;;;18.67;;
59366;SDS011;45163;47.690;11.770;2023-03-01T14:49:58;32.30;;;20.30;;
59366;SDS011;45163;47.690;11.770;2023-03-01T14:52:36;26.90;;;18.90;;
59366;SDS011;45163;47.690;11.770;2023-03-01T14:55:07;31.53;;;20.13;;
59366;SDS011;45163;47.690;11.770;2023-03-01T14:57:42;24.77;;;18.83;;
59366;SDS011;45163;47.690;11.770;2023-03-01T15:00:26;28.73;;;19.20;;
59366;SDS011;45163;47.690;11.770;2023-03-01T15:02:55;29.73;;;19.43;;
59366;SDS011;45163;47.690;11.770;2023-03-01T15:05:30;30.03;;;19.83;;
59366;SDS011;45163;47.690;11.770;2023-03-01T15:07:58;29.13;;;19.57;;
59366;SDS011;45163;47.690;11.770;2023-03-01T15:10:26;29.23;;;19.87;;
59366;SDS011;45163;47.690;11.770;2023-03-01T15:12:55;35.87;;;20.43;;
59366;SDS011;45163;47.690;11.770;2023-03-01T15:17:56;29.90;;;20.53;;
59366;SDS011;45163;47.690;11.770;2023-03-01T15:20:25;30.10;;;20.27;;
59366;SDS011;45163;47.690;11.770;2023-03-01T15:22:54;27.30;;;19.10;;
59366;SDS011;45163;47.690;11.770;2023-03-01T15:25:26;30.07;;;19.97;;
59366;SDS011;45163;47.690;11.770;2023-03-01T15:27:54;29.33;;;18.20;;
59366;SDS011;45163;47.690;11.770;2023-03-01T15:30:23;28.13;;;18.50;;
59366;SDS011;45163;47.690;11.770;2023-03-01T15:35:53;30.83;;;18.97;;
59366;SDS011;45163;47.690;11.770;2023-03-01T15:41:22;32.37;;;19.07;;
59366;SDS011;45163;47.690;11.770;2023-03-01T15:43:53;28.13;;;19.67;;
59366;SDS011;45163;47.690;11.770;2023-03-01T15:46:28;29.90;;;19.53;;
59366;SDS011;45163;47.690;11.770;2023-03-01T15:49:20;30.80;;;20.27;;
59366;SDS011;45163;47.690;11.770;2023-03-01T15:51:50;27.70;;;18.57;;
59366;SDS011;45163;47.690;11.770;2023-03-01T15:54:21;34.13;;;20.87;;
59366;SDS011;45163;47.690;11.770;2023-03-01T15:56:50;28.73;;;19.50;;
59366;SDS011;45163;47.690;11.770;2023-03-01T15:59:16;32.93;;;19.47;;
59366;SDS011;45163;47.690;11.770;2023-03-01T16:01:44;28.60;;;18.90;;
59366;SDS011;45163;47.690;11.770;2023-03-01T16:04:11;28.80;;;19.30;;
59366;SDS011;45163;47.690;11.770;2023-03-01T16:06:52;28.07;;;18.77;;
59366;SDS011;45163;47.690;11.770;2023-03-01T16:09:25;29.10;;;16.97;;
59366;SDS011;45163;47.690;11.770;2023-03-01T16:11:52;24.50;;;17.50;;
59366;SDS011;45163;47.690;11.770;2023-03-01T16:14:19;26.27;;;18.07;;
59366;SDS011;45163;47.690;11.770;2023-03-01T16:16:46;36.93;;;24.23;;
59366;SDS011;45163;47.690;11.770;2023-03-01T16:19:14;36.90;;;25.77;;
59366;SDS011;45163;47.690;11.770;2023-03-01T16:21:40;32.30;;;21.53;;
59366;SDS011;45163;47.690;11.770;2023-03-01T16:24:07;31.50;;;21.07;;
59366;SDS011;45163;47.690;11.770;2023-03-01T16:26:35;32.30;;;20.13;;
59366;SDS011;45163;47.690;11.770;2023-03-01T16:29:03;26.60;;;18.47;;